sensor_id;sensor_type;location;lat;lon;timestamp;temperature;humidity
84983;DHT22;75295;45.426;9.696;2024-01-30T00:01:03;4.60;83.30
84983;DHT22;75295;45.426;9.696;2024-01-30T00:03:30;4.50;83.70
84983;DHT22;75295;45.426;9.696;2024-01-30T00:05:57;4.50;83.70
84983;DHT22;75295;45.426;9.696;2024-01-30T00:08:25;4.50;83.60
84983;DHT22;75295;45.426;9.696;2024-01-30T00:10:52;4.40;83.80
84983;DHT22;75295;45.426;9.696;2024-01-30T00:13:19;4.30;83.70
84983;DHT22;75295;45.426;9.696;2024-01-30T00:15:46;4.20;84.00
84983;DHT22;75295;45.426;9.696;2024-01-30T00:18:13;4.20;84.20
84983;DHT22;75295;45.426;9.696;2024-01-30T00:20:40;4.10;84.30
84983;DHT22;75295;45.426;9.696;2024-01-30T00:23:07;4.10;84.30
84983;DHT22;75295;45.426;9.696;2024-01-30T00:25:34;4.00;84.50
84983;DHT22;75295;45.426;9.696;2024-01-30T00:28:01;3.90;85.30
84983;DHT22;75295;45.426;9.696;2024-01-30T00:30:29;3.90;85.60
84983;DHT22;75295;45.426;9.696;2024-01-30T00:32:55;3.90;85.60
84983;DHT22;75295;45.426;9.696;2024-01-30T00:35:22;3.90;85.60
84983;DHT22;75295;45.426;9.696;2024-01-30T00:37:49;3.90;85.40
84983;DHT22;75295;45.426;9.696;2024-01-30T00:40:16;3.80;85.50
84983;DHT22;75295;45.426;9.696;2024-01-30T00:42:44;3.80;85.70
84983;DHT22;75295;45.426;9.696;2024-01-30T00:45:15;3.70;85.90
84983;DHT22;75295;45.426;9.696;2024-01-30T00:47:43;3.60;86.40
84983;DHT22;75295;45.426;9.696;2024-01-30T00:50:10;3.50;86.60
84983;DHT22;75295;45.426;9.696;2024-01-30T00:52:37;3.50;87.00
84983;DHT22;75295;45.426;9.696;2024-01-30T00:55:06;3.60;87.20
84983;DHT22;75295;45.426;9.696;2024-01-30T00:57:33;3.60;86.60
84983;DHT22;75295;45.426;9.696;2024-01-30T00:59:59;3.50;86.10
84983;DHT22;75295;45.426;9.696;2024-01-30T01:02:26;3.50;86.10
84983;DHT22;75295;45.426;9.696;2024-01-30T01:04:53;3.40;86.50
84983;DHT22;75295;45.426;9.696;2024-01-30T01:07:20;3.50;86.80
84983;DHT22;75295;45.426;9.696;2024-01-30T01:09:47;3.50;86.80
84983;DHT22;75295;45.426;9.696;2024-01-30T01:12:14;3.50;90.60
84983;DHT22;75295;45.426;9.696;2024-01-30T01:14:40;3.30;88.80
84983;DHT22;75295;45.426;9.696;2024-01-30T01:17:08;3.20;90.00
84983;DHT22;75295;45.426;9.696;2024-01-30T01:19:34;3.20;89.60
84983;DHT22;75295;45.426;9.696;2024-01-30T01:22:01;3.20;88.10
84983;DHT22;75295;45.426;9.696;2024-01-30T01:24:32;3.10;86.20
84983;DHT22;75295;45.426;9.696;2024-01-30T01:26:59;2.90;86.50
84983;DHT22;75295;45.426;9.696;2024-01-30T01:29:26;2.80;86.70
84983;DHT22;75295;45.426;9.696;2024-01-30T01:31:55;2.70;88.20
84983;DHT22;75295;45.426;9.696;2024-01-30T01:34:22;2.60;88.10
84983;DHT22;75295;45.426;9.696;2024-01-30T01:36:50;2.60;88.50
84983;DHT22;75295;45.426;9.696;2024-01-30T01:39:17;2.70;88.90
84983;DHT22;75295;45.426;9.696;2024-01-30T01:41:44;2.70;88.60
84983;DHT22;75295;45.426;9.696;2024-01-30T01:44:11;2.60;87.50
84983;DHT22;75295;45.426;9.696;2024-01-30T01:46:38;2.70;87.60
84983;DHT22;75295;45.426;9.696;2024-01-30T01:49:05;2.70;88.00
84983;DHT22;75295;45.426;9.696;2024-01-30T01:51:35;2.70;88.10
84983;DHT22;75295;45.426;9.696;2024-01-30T01:54:04;2.80;88.60
84983;DHT22;75295;45.426;9.696;2024-01-30T01:56:34;2.80;88.20
84983;DHT22;75295;45.426;9.696;2024-01-30T01:59:06;2.80;88.00
84983;DHT22;75295;45.426;9.696;2024-01-30T02:01:36;2.70;88.40
84983;DHT22;75295;45.426;9.696;2024-01-30T02:04:04;2.80;88.60
84983;DHT22;75295;45.426;9.696;2024-01-30T02:06:32;2.80;88.40
84983;DHT22;75295;45.426;9.696;2024-01-30T02:09:00;2.90;88.70
84983;DHT22;75295;45.426;9.696;2024-01-30T02:11:28;2.90;88.40
84983;DHT22;75295;45.426;9.696;2024-01-30T02:13:55;3.00;88.40
84983;DHT22;75295;45.426;9.696;2024-01-30T02:16:23;3.00;87.40
84983;DHT22;75295;45.426;9.696;2024-01-30T02:18:49;2.90;86.60
84983;DHT22;75295;45.426;9.696;2024-01-30T02:21:18;2.70;86.60
84983;DHT22;75295;45.426;9.696;2024-01-30T02:23:50;2.60;87.20
84983;DHT22;75295;45.426;9.696;2024-01-30T02:26:17;2.70;87.80
84983;DHT22;75295;45.426;9.696;2024-01-30T02:28:44;2.80;87.20
84983;DHT22;75295;45.426;9.696;2024-01-30T02:31:11;2.70;86.60
84983;DHT22;75295;45.426;9.696;2024-01-30T02:33:37;2.70;87.00
84983;DHT22;75295;45.426;9.696;2024-01-30T02:36:06;2.70;86.90
84983;DHT22;75295;45.426;9.696;2024-01-30T02:38:33;2.60;87.40
84983;DHT22;75295;45.426;9.696;2024-01-30T02:41:00;2.60;87.40
84983;DHT22;75295;45.426;9.696;2024-01-30T02:43:27;2.50;87.20
84983;DHT22;75295;45.426;9.696;2024-01-30T02:45:53;2.50;86.90
84983;DHT22;75295;45.426;9.696;2024-01-30T02:48:20;2.50;87.20
84983;DHT22;75295;45.426;9.696;2024-01-30T02:50:47;2.50;87.20
84983;DHT22;75295;45.426;9.696;2024-01-30T02:53:14;2.40;86.40
84983;DHT22;75295;45.426;9.696;2024-01-30T02:55:42;2.40;86.90
84983;DHT22;75295;45.426;9.696;2024-01-30T02:58:09;2.40;87.40
84983;DHT22;75295;45.426;9.696;2024-01-30T03:00:36;2.50;87.90
84983;DHT22;75295;45.426;9.696;2024-01-30T03:03:04;2.60;87.30
84983;DHT22;75295;45.426;9.696;2024-01-30T03:05:31;2.60;87.10
84983;DHT22;75295;45.426;9.696;2024-01-30T03:07:58;2.70;87.20
84983;DHT22;75295;45.426;9.696;2024-01-30T03:10:26;2.80;86.80
84983;DHT22;75295;45.426;9.696;2024-01-30T03:12:53;2.90;86.00
84983;DHT22;75295;45.426;9.696;2024-01-30T03:15:19;2.90;86.40
84983;DHT22;75295;45.426;9.696;2024-01-30T03:17:46;2.90;86.60
84983;DHT22;75295;45.426;9.696;2024-01-30T03:20:13;3.00;86.60
84983;DHT22;75295;45.426;9.696;2024-01-30T03:22:40;3.10;86.10
84983;DHT22;75295;45.426;9.696;2024-01-30T03:25:07;3.10;85.80
84983;DHT22;75295;45.426;9.696;2024-01-30T03:27:34;3.10;85.50
84983;DHT22;75295;45.426;9.696;2024-01-30T03:30:01;3.10;85.60
84983;DHT22;75295;45.426;9.696;2024-01-30T03:32:28;3.10;85.10
84983;DHT22;75295;45.426;9.696;2024-01-30T03:34:55;3.10;84.80
84983;DHT22;75295;45.426;9.696;2024-01-30T03:37:22;3.10;85.00
84983;DHT22;75295;45.426;9.696;2024-01-30T03:39:50;3.00;85.00
84983;DHT22;75295;45.426;9.696;2024-01-30T03:42:17;3.00;85.10
84983;DHT22;75295;45.426;9.696;2024-01-30T03:44:44;2.90;85.30
84983;DHT22;75295;45.426;9.696;2024-01-30T03:47:10;2.90;85.40
84983;DHT22;75295;45.426;9.696;2024-01-30T03:49:37;2.90;85.10
84983;DHT22;75295;45.426;9.696;2024-01-30T03:52:04;2.80;85.10
84983;DHT22;75295;45.426;9.696;2024-01-30T03:54:31;2.90;85.90
84983;DHT22;75295;45.426;9.696;2024-01-30T03:56:58;3.00;85.90
84983;DHT22;75295;45.426;9.696;2024-01-30T03:59:25;3.00;85.40
84983;DHT22;75295;45.426;9.696;2024-01-30T04:01:52;3.10;85.30
84983;DHT22;75295;45.426;9.696;2024-01-30T04:04:19;3.10;85.40
84983;DHT22;75295;45.426;9.696;2024-01-30T04:06:47;3.10;84.80
84983;DHT22;75295;45.426;9.696;2024-01-30T04:09:15;3.10;84.90
84983;DHT22;75295;45.426;9.696;2024-01-30T04:11:42;3.00;84.90
84983;DHT22;75295;45.426;9.696;2024-01-30T04:14:09;3.00;85.40
84983;DHT22;75295;45.426;9.696;2024-01-30T04:16:36;2.90;85.20
84983;DHT22;75295;45.426;9.696;2024-01-30T04:19:03;2.90;85.80
84983;DHT22;75295;45.426;9.696;2024-01-30T04:21:30;2.90;85.80
84983;DHT22;75295;45.426;9.696;2024-01-30T04:23:57;2.90;85.40
84983;DHT22;75295;45.426;9.696;2024-01-30T04:26:24;2.90;85.50
84983;DHT22;75295;45.426;9.696;2024-01-30T04:28:51;2.90;85.50
84983;DHT22;75295;45.426;9.696;2024-01-30T04:31:18;2.90;85.40
84983;DHT22;75295;45.426;9.696;2024-01-30T04:33:45;2.90;85.20
84983;DHT22;75295;45.426;9.696;2024-01-30T04:36:12;2.90;85.40
84983;DHT22;75295;45.426;9.696;2024-01-30T04:38:40;2.90;85.20
84983;DHT22;75295;45.426;9.696;2024-01-30T04:41:07;2.90;85.10
84983;DHT22;75295;45.426;9.696;2024-01-30T04:43:37;2.90;85.20
84983;DHT22;75295;45.426;9.696;2024-01-30T04:46:09;2.90;85.30
84983;DHT22;75295;45.426;9.696;2024-01-30T04:48:38;2.80;85.30
84983;DHT22;75295;45.426;9.696;2024-01-30T04:51:05;2.80;85.40
84983;DHT22;75295;45.426;9.696;2024-01-30T04:53:31;2.80;85.60
84983;DHT22;75295;45.426;9.696;2024-01-30T04:56:00;2.70;85.90
84983;DHT22;75295;45.426;9.696;2024-01-30T04:58:28;2.70;86.20
84983;DHT22;75295;45.426;9.696;2024-01-30T05:00:59;2.70;86.30
84983;DHT22;75295;45.426;9.696;2024-01-30T05:03:39;2.70;86.60
84983;DHT22;75295;45.426;9.696;2024-01-30T05:06:06;2.60;86.80
84983;DHT22;75295;45.426;9.696;2024-01-30T05:08:35;2.70;87.20
84983;DHT22;75295;45.426;9.696;2024-01-30T05:11:07;2.70;87.00
84983;DHT22;75295;45.426;9.696;2024-01-30T05:13:36;2.70;86.70
84983;DHT22;75295;45.426;9.696;2024-01-30T05:16:03;2.80;87.00
84983;DHT22;75295;45.426;9.696;2024-01-30T05:18:30;2.90;86.90
84983;DHT22;75295;45.426;9.696;2024-01-30T05:20:57;3.00;86.50
84983;DHT22;75295;45.426;9.696;2024-01-30T05:23:34;3.00;86.30
84983;DHT22;75295;45.426;9.696;2024-01-30T05:26:11;2.90;86.20
84983;DHT22;75295;45.426;9.696;2024-01-30T05:28:45;2.90;86.20
84983;DHT22;75295;45.426;9.696;2024-01-30T05:31:17;2.90;86.20
84983;DHT22;75295;45.426;9.696;2024-01-30T05:33:59;2.90;86.50
84983;DHT22;75295;45.426;9.696;2024-01-30T05:36:40;2.90;86.60
84983;DHT22;75295;45.426;9.696;2024-01-30T05:39:15;2.80;86.50
84983;DHT22;75295;45.426;9.696;2024-01-30T05:42:07;2.70;86.80
84983;DHT22;75295;45.426;9.696;2024-01-30T05:44:38;2.70;86.70
84983;DHT22;75295;45.426;9.696;2024-01-30T05:47:05;2.60;86.00
84983;DHT22;75295;45.426;9.696;2024-01-30T05:49:34;2.50;86.50
84983;DHT22;75295;45.426;9.696;2024-01-30T05:52:14;2.50;86.90
84983;DHT22;75295;45.426;9.696;2024-01-30T05:55:08;2.50;86.80
84983;DHT22;75295;45.426;9.696;2024-01-30T05:58:16;2.40;86.80
84983;DHT22;75295;45.426;9.696;2024-01-30T06:01:26;2.40;87.20
84983;DHT22;75295;45.426;9.696;2024-01-30T06:04:37;2.40;86.90
84983;DHT22;75295;45.426;9.696;2024-01-30T06:07:44;2.50;87.10
84983;DHT22;75295;45.426;9.696;2024-01-30T06:10:14;2.50;87.00
84983;DHT22;75295;45.426;9.696;2024-01-30T06:12:51;2.60;86.70
84983;DHT22;75295;45.426;9.696;2024-01-30T06:15:51;2.60;86.70
84983;DHT22;75295;45.426;9.696;2024-01-30T06:18:18;2.60;86.80
84983;DHT22;75295;45.426;9.696;2024-01-30T06:21:00;2.60;86.70
84983;DHT22;75295;45.426;9.696;2024-01-30T06:23:30;2.60;86.70
84983;DHT22;75295;45.426;9.696;2024-01-30T06:26:10;2.60;87.00
84983;DHT22;75295;45.426;9.696;2024-01-30T06:28:37;2.60;86.90
84983;DHT22;75295;45.426;9.696;2024-01-30T06:31:06;2.60;86.90
84983;DHT22;75295;45.426;9.696;2024-01-30T06:33:33;2.60;86.80
84983;DHT22;75295;45.426;9.696;2024-01-30T06:36:00;2.60;86.60
84983;DHT22;75295;45.426;9.696;2024-01-30T06:38:47;2.60;86.90
84983;DHT22;75295;45.426;9.696;2024-01-30T06:41:38;2.60;86.80
84983;DHT22;75295;45.426;9.696;2024-01-30T06:44:05;2.60;86.80
84983;DHT22;75295;45.426;9.696;2024-01-30T06:46:37;2.60;86.40
84983;DHT22;75295;45.426;9.696;2024-01-30T06:49:07;2.60;86.40
84983;DHT22;75295;45.426;9.696;2024-01-30T06:51:39;2.60;86.60
84983;DHT22;75295;45.426;9.696;2024-01-30T06:54:44;2.60;86.90
84983;DHT22;75295;45.426;9.696;2024-01-30T06:57:36;2.70;86.90
84983;DHT22;75295;45.426;9.696;2024-01-30T07:00:33;2.60;86.60
84983;DHT22;75295;45.426;9.696;2024-01-30T07:03:24;2.70;87.10
84983;DHT22;75295;45.426;9.696;2024-01-30T07:05:51;2.70;86.40
84983;DHT22;75295;45.426;9.696;2024-01-30T07:08:42;2.80;86.50
84983;DHT22;75295;45.426;9.696;2024-01-30T07:11:50;2.70;86.70
84983;DHT22;75295;45.426;9.696;2024-01-30T07:14:52;2.80;86.70
84983;DHT22;75295;45.426;9.696;2024-01-30T07:18:00;2.90;86.10
84983;DHT22;75295;45.426;9.696;2024-01-30T07:21:11;2.80;86.00
84983;DHT22;75295;45.426;9.696;2024-01-30T07:24:23;2.90;86.50
84983;DHT22;75295;45.426;9.696;2024-01-30T07:27:05;2.80;86.40
84983;DHT22;75295;45.426;9.696;2024-01-30T07:29:39;2.80;86.40
84983;DHT22;75295;45.426;9.696;2024-01-30T07:32:19;2.70;86.20
84983;DHT22;75295;45.426;9.696;2024-01-30T07:35:06;2.60;86.30
84983;DHT22;75295;45.426;9.696;2024-01-30T07:37:48;2.50;86.90
84983;DHT22;75295;45.426;9.696;2024-01-30T07:40:27;2.60;87.60
84983;DHT22;75295;45.426;9.696;2024-01-30T07:43:31;2.60;87.00
84983;DHT22;75295;45.426;9.696;2024-01-30T07:46:31;2.60;86.90
84983;DHT22;75295;45.426;9.696;2024-01-30T07:49:36;2.60;86.90
84983;DHT22;75295;45.426;9.696;2024-01-30T07:52:46;2.60;87.00
84983;DHT22;75295;45.426;9.696;2024-01-30T07:55:56;2.80;87.10
84983;DHT22;75295;45.426;9.696;2024-01-30T07:59:17;2.90;86.00
84983;DHT22;75295;45.426;9.696;2024-01-30T08:02:03;2.90;86.00
84983;DHT22;75295;45.426;9.696;2024-01-30T08:05:00;2.90;86.40
84983;DHT22;75295;45.426;9.696;2024-01-30T08:07:27;3.00;86.30
84983;DHT22;75295;45.426;9.696;2024-01-30T08:09:57;3.10;86.00
84983;DHT22;75295;45.426;9.696;2024-01-30T08:12:24;3.00;85.60
84983;DHT22;75295;45.426;9.696;2024-01-30T08:14:51;3.00;85.70
84983;DHT22;75295;45.426;9.696;2024-01-30T08:17:59;2.90;85.20
84983;DHT22;75295;45.426;9.696;2024-01-30T08:21:23;2.80;85.80
84983;DHT22;75295;45.426;9.696;2024-01-30T08:24:20;2.80;86.40
84983;DHT22;75295;45.426;9.696;2024-01-30T08:27:28;2.70;86.50
84983;DHT22;75295;45.426;9.696;2024-01-30T08:30:29;2.80;86.80
84983;DHT22;75295;45.426;9.696;2024-01-30T08:33:41;2.90;86.90
84983;DHT22;75295;45.426;9.696;2024-01-30T08:36:41;3.10;86.80
84983;DHT22;75295;45.426;9.696;2024-01-30T08:39:51;3.10;86.20
84983;DHT22;75295;45.426;9.696;2024-01-30T08:43:09;3.10;86.20
84983;DHT22;75295;45.426;9.696;2024-01-30T08:46:06;3.00;86.00
84983;DHT22;75295;45.426;9.696;2024-01-30T08:49:08;3.00;86.20
84983;DHT22;75295;45.426;9.696;2024-01-30T08:52:27;3.00;85.80
84983;DHT22;75295;45.426;9.696;2024-01-30T08:55:38;2.90;86.10
84983;DHT22;75295;45.426;9.696;2024-01-30T08:58:11;3.00;86.30
84983;DHT22;75295;45.426;9.696;2024-01-30T09:01:05;3.00;86.50
84983;DHT22;75295;45.426;9.696;2024-01-30T09:03:32;3.00;86.20
84983;DHT22;75295;45.426;9.696;2024-01-30T09:06:35;3.00;86.70
84983;DHT22;75295;45.426;9.696;2024-01-30T09:09:47;3.00;87.00
84983;DHT22;75295;45.426;9.696;2024-01-30T09:12:48;3.10;87.00
84983;DHT22;75295;45.426;9.696;2024-01-30T09:15:51;3.20;87.00
84983;DHT22;75295;45.426;9.696;2024-01-30T09:18:58;3.40;86.60
84983;DHT22;75295;45.426;9.696;2024-01-30T09:21:56;3.60;86.20
84983;DHT22;75295;45.426;9.696;2024-01-30T09:24:34;3.70;85.80
84983;DHT22;75295;45.426;9.696;2024-01-30T09:27:02;3.80;85.30
84983;DHT22;75295;45.426;9.696;2024-01-30T09:29:29;3.70;84.60
84983;DHT22;75295;45.426;9.696;2024-01-30T09:31:56;3.70;84.70
84983;DHT22;75295;45.426;9.696;2024-01-30T09:34:24;3.70;85.40
84983;DHT22;75295;45.426;9.696;2024-01-30T09:36:59;3.80;85.70
84983;DHT22;75295;45.426;9.696;2024-01-30T09:39:41;3.80;85.10
84983;DHT22;75295;45.426;9.696;2024-01-30T09:42:25;3.90;84.90
84983;DHT22;75295;45.426;9.696;2024-01-30T09:44:57;3.90;84.80
84983;DHT22;75295;45.426;9.696;2024-01-30T09:47:26;3.90;84.80
84983;DHT22;75295;45.426;9.696;2024-01-30T09:50:03;4.00;85.20
84983;DHT22;75295;45.426;9.696;2024-01-30T09:52:34;4.20;85.30
84983;DHT22;75295;45.426;9.696;2024-01-30T09:55:01;4.30;84.30
84983;DHT22;75295;45.426;9.696;2024-01-30T09:57:33;4.30;83.80
84983;DHT22;75295;45.426;9.696;2024-01-30T10:00:01;4.30;84.50
84983;DHT22;75295;45.426;9.696;2024-01-30T10:03:03;4.50;84.60
84983;DHT22;75295;45.426;9.696;2024-01-30T10:06:15;4.60;83.80
84983;DHT22;75295;45.426;9.696;2024-01-30T10:08:46;4.70;83.60
84983;DHT22;75295;45.426;9.696;2024-01-30T10:11:48;4.70;83.60
84983;DHT22;75295;45.426;9.696;2024-01-30T10:15:00;4.90;83.80
84983;DHT22;75295;45.426;9.696;2024-01-30T10:17:37;4.90;83.20
84983;DHT22;75295;45.426;9.696;2024-01-30T10:20:26;4.90;83.40
84983;DHT22;75295;45.426;9.696;2024-01-30T10:23:24;5.00;83.70
84983;DHT22;75295;45.426;9.696;2024-01-30T10:25:58;5.10;83.60
84983;DHT22;75295;45.426;9.696;2024-01-30T10:28:32;5.20;83.20
84983;DHT22;75295;45.426;9.696;2024-01-30T10:31:02;5.20;83.40
84983;DHT22;75295;45.426;9.696;2024-01-30T10:33:45;5.40;83.40
84983;DHT22;75295;45.426;9.696;2024-01-30T10:36:13;5.40;82.90
84983;DHT22;75295;45.426;9.696;2024-01-30T10:38:43;5.50;82.80
84983;DHT22;75295;45.426;9.696;2024-01-30T10:41:13;5.60;83.00
84983;DHT22;75295;45.426;9.696;2024-01-30T10:43:50;5.70;82.80
84983;DHT22;75295;45.426;9.696;2024-01-30T10:46:31;5.80;82.50
84983;DHT22;75295;45.426;9.696;2024-01-30T10:49:01;6.00;82.50
84983;DHT22;75295;45.426;9.696;2024-01-30T10:51:29;6.10;82.20
84983;DHT22;75295;45.426;9.696;2024-01-30T10:54:05;6.10;82.30
84983;DHT22;75295;45.426;9.696;2024-01-30T10:56:33;6.20;82.00
84983;DHT22;75295;45.426;9.696;2024-01-30T10:59:02;6.30;81.60
84983;DHT22;75295;45.426;9.696;2024-01-30T11:01:30;6.30;81.40
84983;DHT22;75295;45.426;9.696;2024-01-30T11:03:57;6.30;81.30
84983;DHT22;75295;45.426;9.696;2024-01-30T11:06:25;6.40;81.50
84983;DHT22;75295;45.426;9.696;2024-01-30T11:09:04;6.40;81.50
84983;DHT22;75295;45.426;9.696;2024-01-30T11:12:01;6.50;81.10
84983;DHT22;75295;45.426;9.696;2024-01-30T11:14:31;6.50;81.20
84983;DHT22;75295;45.426;9.696;2024-01-30T11:16:59;6.50;81.30
84983;DHT22;75295;45.426;9.696;2024-01-30T11:19:27;6.60;81.90
84983;DHT22;75295;45.426;9.696;2024-01-30T11:21:54;6.70;82.30
84983;DHT22;75295;45.426;9.696;2024-01-30T11:24:23;6.90;82.10
84983;DHT22;75295;45.426;9.696;2024-01-30T11:26:59;7.10;81.50
84983;DHT22;75295;45.426;9.696;2024-01-30T11:29:28;7.20;80.80
84983;DHT22;75295;45.426;9.696;2024-01-30T11:31:56;7.20;80.20
84983;DHT22;75295;45.426;9.696;2024-01-30T11:34:24;7.20;80.20
84983;DHT22;75295;45.426;9.696;2024-01-30T11:37:03;7.20;80.80
84983;DHT22;75295;45.426;9.696;2024-01-30T11:39:36;7.30;80.90
84983;DHT22;75295;45.426;9.696;2024-01-30T11:42:03;7.30;80.70
84983;DHT22;75295;45.426;9.696;2024-01-30T11:44:32;7.40;80.50
84983;DHT22;75295;45.426;9.696;2024-01-30T11:46:59;7.50;80.60
84983;DHT22;75295;45.426;9.696;2024-01-30T11:49:26;7.40;80.20
84983;DHT22;75295;45.426;9.696;2024-01-30T11:51:52;7.50;80.60
84983;DHT22;75295;45.426;9.696;2024-01-30T11:54:21;7.50;80.80
84983;DHT22;75295;45.426;9.696;2024-01-30T11:56:48;7.50;80.40
84983;DHT22;75295;45.426;9.696;2024-01-30T11:59:15;7.50;80.50
84983;DHT22;75295;45.426;9.696;2024-01-30T12:01:43;7.60;80.60
84983;DHT22;75295;45.426;9.696;2024-01-30T12:04:10;7.60;80.30
84983;DHT22;75295;45.426;9.696;2024-01-30T12:06:37;7.60;80.00
84983;DHT22;75295;45.426;9.696;2024-01-30T12:09:05;7.60;80.00
84983;DHT22;75295;45.426;9.696;2024-01-30T12:11:44;7.60;79.90
84983;DHT22;75295;45.426;9.696;2024-01-30T12:14:13;7.50;79.70
84983;DHT22;75295;45.426;9.696;2024-01-30T12:16:41;7.50;80.30
84983;DHT22;75295;45.426;9.696;2024-01-30T12:19:08;7.50;80.30
84983;DHT22;75295;45.426;9.696;2024-01-30T12:21:35;7.60;80.30
84983;DHT22;75295;45.426;9.696;2024-01-30T12:24:03;7.60;80.10
84983;DHT22;75295;45.426;9.696;2024-01-30T12:26:30;7.60;79.50
84983;DHT22;75295;45.426;9.696;2024-01-30T12:28:58;7.50;79.70
84983;DHT22;75295;45.426;9.696;2024-01-30T12:31:26;7.30;80.60
84983;DHT22;75295;45.426;9.696;2024-01-30T12:33:54;7.40;81.10
84983;DHT22;75295;45.426;9.696;2024-01-30T12:36:22;7.50;80.90
84983;DHT22;75295;45.426;9.696;2024-01-30T12:38:51;7.50;80.60
84983;DHT22;75295;45.426;9.696;2024-01-30T12:41:19;7.60;80.70
84983;DHT22;75295;45.426;9.696;2024-01-30T12:43:46;7.60;80.20
84983;DHT22;75295;45.426;9.696;2024-01-30T12:46:17;7.50;80.30
84983;DHT22;75295;45.426;9.696;2024-01-30T12:48:44;7.50;80.80
84983;DHT22;75295;45.426;9.696;2024-01-30T12:51:11;7.60;81.30
84983;DHT22;75295;45.426;9.696;2024-01-30T12:53:37;7.60;80.50
84983;DHT22;75295;45.426;9.696;2024-01-30T12:56:05;7.60;80.30
84983;DHT22;75295;45.426;9.696;2024-01-30T12:58:32;7.60;80.20
84983;DHT22;75295;45.426;9.696;2024-01-30T13:01:00;7.70;80.30
84983;DHT22;75295;45.426;9.696;2024-01-30T13:03:27;7.70;80.40
84983;DHT22;75295;45.426;9.696;2024-01-30T13:05:54;7.70;80.10
84983;DHT22;75295;45.426;9.696;2024-01-30T13:08:25;7.70;80.70
84983;DHT22;75295;45.426;9.696;2024-01-30T13:10:52;7.80;80.60
84983;DHT22;75295;45.426;9.696;2024-01-30T13:13:19;7.90;80.50
84983;DHT22;75295;45.426;9.696;2024-01-30T13:15:46;7.90;80.60
84983;DHT22;75295;45.426;9.696;2024-01-30T13:18:13;8.00;80.40
84983;DHT22;75295;45.426;9.696;2024-01-30T13:20:40;8.00;80.40
84983;DHT22;75295;45.426;9.696;2024-01-30T13:23:07;8.10;80.40
84983;DHT22;75295;45.426;9.696;2024-01-30T13:25:34;8.10;80.10
84983;DHT22;75295;45.426;9.696;2024-01-30T13:28:01;8.10;80.40
84983;DHT22;75295;45.426;9.696;2024-01-30T13:30:28;8.10;80.50
84983;DHT22;75295;45.426;9.696;2024-01-30T13:32:55;8.10;80.50
84983;DHT22;75295;45.426;9.696;2024-01-30T13:35:22;8.20;80.70
84983;DHT22;75295;45.426;9.696;2024-01-30T13:37:49;8.30;81.00
84983;DHT22;75295;45.426;9.696;2024-01-30T13:40:21;8.40;80.80
84983;DHT22;75295;45.426;9.696;2024-01-30T13:42:48;8.50;80.70
84983;DHT22;75295;45.426;9.696;2024-01-30T13:45:15;8.70;80.40
84983;DHT22;75295;45.426;9.696;2024-01-30T13:47:42;8.80;79.90
84983;DHT22;75295;45.426;9.696;2024-01-30T13:50:15;9.00;79.50
84983;DHT22;75295;45.426;9.696;2024-01-30T13:52:46;9.00;79.20
84983;DHT22;75295;45.426;9.696;2024-01-30T13:55:13;9.10;79.00
84983;DHT22;75295;45.426;9.696;2024-01-30T13:57:40;9.20;78.20
84983;DHT22;75295;45.426;9.696;2024-01-30T14:00:08;9.20;78.00
84983;DHT22;75295;45.426;9.696;2024-01-30T14:02:44;9.30;77.80
84983;DHT22;75295;45.426;9.696;2024-01-30T14:05:18;9.20;77.70
84983;DHT22;75295;45.426;9.696;2024-01-30T14:07:51;9.20;77.80
84983;DHT22;75295;45.426;9.696;2024-01-30T14:10:19;9.20;77.80
84983;DHT22;75295;45.426;9.696;2024-01-30T14:12:46;9.20;77.60
84983;DHT22;75295;45.426;9.696;2024-01-30T14:15:18;9.30;77.60
84983;DHT22;75295;45.426;9.696;2024-01-30T14:17:48;9.30;77.40
84983;DHT22;75295;45.426;9.696;2024-01-30T14:20:17;9.30;77.10
84983;DHT22;75295;45.426;9.696;2024-01-30T14:22:45;9.20;77.30
84983;DHT22;75295;45.426;9.696;2024-01-30T14:25:14;9.30;77.40
84983;DHT22;75295;45.426;9.696;2024-01-30T14:27:44;9.30;77.70
84983;DHT22;75295;45.426;9.696;2024-01-30T14:30:11;9.30;77.50
84983;DHT22;75295;45.426;9.696;2024-01-30T14:32:41;9.30;77.50
84983;DHT22;75295;45.426;9.696;2024-01-30T14:35:22;9.30;77.70
84983;DHT22;75295;45.426;9.696;2024-01-30T14:38:00;9.30;77.70
84983;DHT22;75295;45.426;9.696;2024-01-30T14:40:38;9.30;77.70
84983;DHT22;75295;45.426;9.696;2024-01-30T14:43:08;9.20;77.90
84983;DHT22;75295;45.426;9.696;2024-01-30T14:45:39;9.20;78.10
84983;DHT22;75295;45.426;9.696;2024-01-30T14:48:10;9.20;78.20
84983;DHT22;75295;45.426;9.696;2024-01-30T14:50:39;9.20;78.40
84983;DHT22;75295;45.426;9.696;2024-01-30T14:53:08;9.30;78.30
84983;DHT22;75295;45.426;9.696;2024-01-30T14:55:44;9.30;78.20
84983;DHT22;75295;45.426;9.696;2024-01-30T14:58:15;9.30;78.10
84983;DHT22;75295;45.426;9.696;2024-01-30T15:00:42;9.30;78.40
84983;DHT22;75295;45.426;9.696;2024-01-30T15:03:12;9.30;78.20
84983;DHT22;75295;45.426;9.696;2024-01-30T15:05:39;9.30;78.20
84983;DHT22;75295;45.426;9.696;2024-01-30T15:08:07;9.40;78.40
84983;DHT22;75295;45.426;9.696;2024-01-30T15:10:34;9.40;78.20
84983;DHT22;75295;45.426;9.696;2024-01-30T15:13:05;9.40;78.10
84983;DHT22;75295;45.426;9.696;2024-01-30T15:15:32;9.50;78.10
84983;DHT22;75295;45.426;9.696;2024-01-30T15:17:59;9.50;77.80
84983;DHT22;75295;45.426;9.696;2024-01-30T15:20:26;9.50;77.70
84983;DHT22;75295;45.426;9.696;2024-01-30T15:22:52;9.40;77.50
84983;DHT22;75295;45.426;9.696;2024-01-30T15:25:19;9.40;77.70
84983;DHT22;75295;45.426;9.696;2024-01-30T15:27:46;9.40;77.60
84983;DHT22;75295;45.426;9.696;2024-01-30T15:30:14;9.40;77.70
84983;DHT22;75295;45.426;9.696;2024-01-30T15:32:43;9.40;77.50
84983;DHT22;75295;45.426;9.696;2024-01-30T15:35:10;9.40;77.70
84983;DHT22;75295;45.426;9.696;2024-01-30T15:37:36;9.40;77.90
84983;DHT22;75295;45.426;9.696;2024-01-30T15:40:04;9.40;77.90
84983;DHT22;75295;45.426;9.696;2024-01-30T15:42:32;9.40;77.80
84983;DHT22;75295;45.426;9.696;2024-01-30T15:44:59;9.40;77.80
84983;DHT22;75295;45.426;9.696;2024-01-30T15:47:27;9.40;77.80
84983;DHT22;75295;45.426;9.696;2024-01-30T15:49:54;9.30;77.90
84983;DHT22;75295;45.426;9.696;2024-01-30T15:52:21;9.30;77.80
84983;DHT22;75295;45.426;9.696;2024-01-30T15:54:48;9.20;77.90
84983;DHT22;75295;45.426;9.696;2024-01-30T15:57:15;9.10;78.10
84983;DHT22;75295;45.426;9.696;2024-01-30T15:59:42;9.00;78.40
84983;DHT22;75295;45.426;9.696;2024-01-30T16:02:09;9.00;78.60
84983;DHT22;75295;45.426;9.696;2024-01-30T16:04:36;8.90;79.40
84983;DHT22;75295;45.426;9.696;2024-01-30T16:07:03;8.90;78.80
84983;DHT22;75295;45.426;9.696;2024-01-30T16:09:31;8.90;78.90
84983;DHT22;75295;45.426;9.696;2024-01-30T16:11:58;8.80;79.00
84983;DHT22;75295;45.426;9.696;2024-01-30T16:14:25;8.80;79.60
84983;DHT22;75295;45.426;9.696;2024-01-30T16:16:52;8.70;79.10
84983;DHT22;75295;45.426;9.696;2024-01-30T16:19:18;8.70;79.20
84983;DHT22;75295;45.426;9.696;2024-01-30T16:21:46;8.70;79.30
84983;DHT22;75295;45.426;9.696;2024-01-30T16:24:14;8.60;79.40
84983;DHT22;75295;45.426;9.696;2024-01-30T16:26:41;8.60;79.70